SHT8Q EGLL-EGPH
Flight info
| Callsign | SHT8Q |
|---|---|
| Flight time | 0h 53m |
| Altitude | 32000 |
| Route | UMLAT T418 WELIN T420 TNT UN57 POL UN601 RIBEL DCT INPIP |
| Aircraft | A320/M-SDE3FGHIRWY/LB1 |
Departure
| Time | 2026-05-04 15:24 |
|---|---|
| Airport | London Heathrow Airport (EGLL) |
Arrival
| Time | 2026-05-04 16:18 |
|---|---|
| Airport | Edinburgh Airport (EGPH) |
| Time | Latitude | Longitude | Altitude | Speed | Heading |
|---|---|---|---|---|---|
| 2026-05-04 14:40 | 51.47187 | -0.48602 | 87 ft | 0 kts | 269° |
| 2026-05-04 15:08 | 51.47187 | -0.48599 | 87 ft | 2 kts | 269° |
| 2026-05-04 15:09 | 51.47187 | -0.48557 | 87 ft | 3 kts | 269° |
| 2026-05-04 15:09 | 51.47187 | -0.48524 | 87 ft | 4 kts | 278° |
| 2026-05-04 15:09 | 51.47179 | -0.48485 | 88 ft | 4 kts | 322° |
| 2026-05-04 15:10 | 51.47158 | -0.48475 | 88 ft | 0 kts | 359° |
| 2026-05-04 15:10 | 51.47159 | -0.48475 | 88 ft | 0 kts | 359° |
| 2026-05-04 15:13 | 51.47165 | -0.48475 | 88 ft | 2 kts | 360° |
| 2026-05-04 15:13 | 51.47193 | -0.48475 | 87 ft | 7 kts | 360° |
| 2026-05-04 15:13 | 51.47256 | -0.48476 | 87 ft | 11 kts | 360° |
| 2026-05-04 15:14 | 51.47339 | -0.48477 | 87 ft | 13 kts | 360° |
| 2026-05-04 15:14 | 51.47441 | -0.48477 | 87 ft | 16 kts | 360° |
| 2026-05-04 15:14 | 51.47536 | -0.48478 | 87 ft | 11 kts | 0° |
| 2026-05-04 15:14 | 51.47577 | -0.48381 | 87 ft | 13 kts | 88° |
| 2026-05-04 15:15 | 51.47577 | -0.48220 | 87 ft | 16 kts | 89° |
| 2026-05-04 15:15 | 51.47578 | -0.47983 | 90 ft | 26 kts | 90° |
| 2026-05-04 15:15 | 51.47580 | -0.47668 | 89 ft | 29 kts | 90° |
| 2026-05-04 15:16 | 51.47582 | -0.47013 | 91 ft | 28 kts | 90° |
| 2026-05-04 15:16 | 51.47592 | -0.46694 | 87 ft | 29 kts | 89° |
| 2026-05-04 15:16 | 51.47594 | -0.46067 | 87 ft | 30 kts | 90° |
| 2026-05-04 15:17 | 51.47594 | -0.45747 | 90 ft | 28 kts | 90° |
| 2026-05-04 15:17 | 51.47597 | -0.45128 | 87 ft | 29 kts | 89° |
| 2026-05-04 15:17 | 51.47598 | -0.44793 | 87 ft | 31 kts | 90° |
| 2026-05-04 15:18 | 51.47599 | -0.44457 | 87 ft | 22 kts | 90° |
| 2026-05-04 15:18 | 51.47591 | -0.44206 | 87 ft | 20 kts | 90° |
| 2026-05-04 15:18 | 51.47591 | -0.44003 | 87 ft | 17 kts | 89° |
| 2026-05-04 15:19 | 51.47592 | -0.43859 | 87 ft | 0 kts | 90° |
| 2026-05-04 15:19 | 51.47592 | -0.43801 | 87 ft | 5 kts | 90° |
| 2026-05-04 15:20 | 51.47593 | -0.43729 | 87 ft | 8 kts | 90° |
| 2026-05-04 15:20 | 51.47593 | -0.43631 | 87 ft | 10 kts | 90° |
| 2026-05-04 15:20 | 51.47621 | -0.43524 | 90 ft | 12 kts | 47° |
| 2026-05-04 15:20 | 51.47677 | -0.43406 | 89 ft | 14 kts | 63° |
| 2026-05-04 15:21 | 51.47753 | -0.43356 | 88 ft | 7 kts | 358° |
| 2026-05-04 15:21 | 51.47767 | -0.43421 | 91 ft | 9 kts | 261° |
| 2026-05-04 15:21 | 51.47767 | -0.43456 | 89 ft | 0 kts | 271° |
| 2026-05-04 15:22 | 51.47767 | -0.43458 | 87 ft | 1 kts | 271° |
| 2026-05-04 15:23 | 51.47769 | -0.43753 | 89 ft | 63 kts | 269° |
| 2026-05-04 15:23 | 51.47766 | -0.44794 | 89 ft | 123 kts | 270° |
| 2026-05-04 15:23 | 51.47755 | -0.46418 | 92 ft | 167 kts | 270° |
| 2026-05-04 15:23 | 51.47751 | -0.48357 | 630 ft | 173 kts | 271° |
| 2026-05-04 15:24 | 51.47729 | -0.52258 | 1894 ft | 189 kts | 271° |
| 2026-05-04 15:24 | 51.48399 | -0.56762 | 2770 ft | 234 kts | 298° |
| 2026-05-04 15:25 | 51.49178 | -0.59203 | 3339 ft | 256 kts | 298° |
| 2026-05-04 15:25 | 51.50009 | -0.61793 | 4248 ft | 263 kts | 297° |
| 2026-05-04 15:25 | 51.50851 | -0.64414 | 5171 ft | 267 kts | 297° |
| 2026-05-04 15:26 | 51.53468 | -0.68512 | 6908 ft | 281 kts | 347° |
| 2026-05-04 15:26 | 51.55425 | -0.68775 | 7764 ft | 285 kts | 358° |
| 2026-05-04 15:26 | 51.59453 | -0.68837 | 9582 ft | 293 kts | 358° |
| 2026-05-04 15:27 | 51.61482 | -0.68915 | 10275 ft | 303 kts | 356° |
| 2026-05-04 15:27 | 51.66002 | -0.69274 | 10970 ft | 342 kts | 355° |
| 2026-05-04 15:28 | 51.70829 | -0.69807 | 12326 ft | 352 kts | 354° |
| 2026-05-04 15:28 | 51.73285 | -0.70093 | 13037 ft | 355 kts | 354° |
| 2026-05-04 15:28 | 51.78270 | -0.70672 | 14378 ft | 364 kts | 354° |
| 2026-05-04 15:29 | 51.80819 | -0.70963 | 14969 ft | 368 kts | 355° |
| 2026-05-04 15:30 | 51.91239 | -0.72124 | 17310 ft | 384 kts | 355° |
| 2026-05-04 15:30 | 51.99356 | -0.73041 | 19043 ft | 395 kts | 355° |
| 2026-05-04 15:31 | 52.04679 | -0.74729 | 20142 ft | 398 kts | 341° |
| 2026-05-04 15:31 | 52.07285 | -0.76096 | 20690 ft | 400 kts | 341° |
| 2026-05-04 15:32 | 52.15320 | -0.80288 | 22282 ft | 408 kts | 341° |
| 2026-05-04 15:32 | 52.20753 | -0.83140 | 23294 ft | 413 kts | 341° |
| 2026-05-04 15:33 | 52.26110 | -0.86588 | 24162 ft | 416 kts | 329° |
| 2026-05-04 15:34 | 52.33554 | -0.93992 | 25362 ft | 424 kts | 327° |
| 2026-05-04 15:34 | 52.36083 | -0.96515 | 25762 ft | 426 kts | 327° |
| 2026-05-04 15:34 | 52.41161 | -1.01584 | 26540 ft | 431 kts | 327° |
| 2026-05-04 15:35 | 52.46307 | -1.06750 | 27305 ft | 436 kts | 327° |
| 2026-05-04 15:35 | 52.48902 | -1.09361 | 27688 ft | 438 kts | 327° |
| 2026-05-04 15:35 | 52.51507 | -1.11981 | 28077 ft | 441 kts | 327° |
| 2026-05-04 15:36 | 52.56731 | -1.17246 | 28843 ft | 446 kts | 328° |
| 2026-05-04 15:36 | 52.59384 | -1.19917 | 29216 ft | 448 kts | 328° |
| 2026-05-04 15:36 | 52.62048 | -1.22599 | 29572 ft | 450 kts | 328° |
| 2026-05-04 15:37 | 52.64731 | -1.25303 | 29924 ft | 453 kts | 328° |
| 2026-05-04 15:37 | 52.67418 | -1.28020 | 30315 ft | 454 kts | 328° |
| 2026-05-04 15:37 | 52.70106 | -1.30749 | 30765 ft | 453 kts | 328° |
| 2026-05-04 15:37 | 52.72785 | -1.33476 | 31224 ft | 452 kts | 328° |
| 2026-05-04 15:38 | 52.75445 | -1.36192 | 31718 ft | 450 kts | 329° |
| 2026-05-04 15:38 | 52.78079 | -1.38884 | 31998 ft | 451 kts | 329° |
| 2026-05-04 15:38 | 52.83364 | -1.44285 | 32059 ft | 445 kts | 329° |
| 2026-05-04 15:39 | 52.88624 | -1.49682 | 32059 ft | 443 kts | 330° |
| 2026-05-04 15:40 | 52.95602 | -1.56859 | 32061 ft | 443 kts | 330° |
| 2026-05-04 15:40 | 53.00830 | -1.62247 | 32063 ft | 443 kts | 330° |
| 2026-05-04 15:41 | 53.07056 | -1.68019 | 32082 ft | 438 kts | 342° |
| 2026-05-04 15:41 | 53.11806 | -1.70965 | 32080 ft | 438 kts | 342° |
| 2026-05-04 15:42 | 53.17502 | -1.74493 | 32082 ft | 437 kts | 343° |
| 2026-05-04 15:42 | 53.23208 | -1.78042 | 32077 ft | 437 kts | 343° |
| 2026-05-04 15:43 | 53.28892 | -1.81579 | 32076 ft | 436 kts | 342° |
| 2026-05-04 15:43 | 53.34578 | -1.85137 | 32072 ft | 436 kts | 342° |
| 2026-05-04 15:44 | 53.40248 | -1.88694 | 32069 ft | 435 kts | 342° |
| 2026-05-04 15:44 | 53.45888 | -1.92238 | 32066 ft | 435 kts | 342° |
| 2026-05-04 15:45 | 53.51548 | -1.95805 | 32065 ft | 435 kts | 342° |
| 2026-05-04 15:45 | 53.57201 | -1.99378 | 32061 ft | 434 kts | 342° |
| 2026-05-04 15:46 | 53.62833 | -2.02955 | 32060 ft | 434 kts | 342° |
| 2026-05-04 15:46 | 53.68265 | -2.06417 | 32056 ft | 434 kts | 342° |
| 2026-05-04 15:47 | 53.73923 | -2.10029 | 32052 ft | 434 kts | 342° |
| 2026-05-04 15:47 | 53.79550 | -2.13746 | 32050 ft | 435 kts | 340° |
| 2026-05-04 15:48 | 53.85117 | -2.17594 | 32051 ft | 435 kts | 340° |
| 2026-05-04 15:48 | 53.93508 | -2.23402 | 32051 ft | 434 kts | 340° |
| 2026-05-04 15:49 | 53.99104 | -2.27241 | 32056 ft | 434 kts | 340° |
| 2026-05-04 15:49 | 54.04701 | -2.31087 | 32053 ft | 433 kts | 340° |
| 2026-05-04 15:50 | 54.10288 | -2.34934 | 32056 ft | 433 kts | 340° |
| 2026-05-04 15:50 | 54.15829 | -2.38775 | 32056 ft | 432 kts | 339° |
| 2026-05-04 15:51 | 54.21413 | -2.42666 | 32052 ft | 432 kts | 339° |
| 2026-05-04 15:51 | 54.26933 | -2.46517 | 32049 ft | 431 kts | 339° |
| 2026-05-04 15:52 | 54.32484 | -2.50404 | 32050 ft | 430 kts | 339° |
| 2026-05-04 15:52 | 54.38015 | -2.54279 | 32048 ft | 429 kts | 339° |
| 2026-05-04 15:53 | 54.43547 | -2.58170 | 32046 ft | 429 kts | 339° |
| 2026-05-04 15:53 | 54.49021 | -2.62035 | 32046 ft | 428 kts | 338° |
| 2026-05-04 15:54 | 54.54528 | -2.65931 | 32045 ft | 427 kts | 338° |
| 2026-05-04 15:54 | 54.60027 | -2.69827 | 32031 ft | 428 kts | 338° |
| 2026-05-04 15:55 | 54.65503 | -2.73720 | 30861 ft | 424 kts | 338° |
| 2026-05-04 15:55 | 54.68266 | -2.75687 | 29479 ft | 432 kts | 338° |
| 2026-05-04 15:55 | 54.71016 | -2.77650 | 29153 ft | 421 kts | 338° |
| 2026-05-04 15:56 | 54.73687 | -2.79563 | 28837 ft | 411 kts | 338° |
| 2026-05-04 15:56 | 54.76282 | -2.81423 | 28307 ft | 407 kts | 338° |
| 2026-05-04 15:56 | 54.78878 | -2.83283 | 27779 ft | 402 kts | 337° |
| 2026-05-04 15:56 | 54.81448 | -2.85127 | 27279 ft | 398 kts | 337° |
| 2026-05-04 15:57 | 54.83983 | -2.86953 | 26750 ft | 395 kts | 337° |
| 2026-05-04 15:57 | 54.86520 | -2.88781 | 26247 ft | 391 kts | 337° |
| 2026-05-04 15:57 | 54.89030 | -2.90590 | 26003 ft | 392 kts | 337° |
| 2026-05-04 15:57 | 54.91570 | -2.92423 | 25151 ft | 400 kts | 337° |
| 2026-05-04 15:58 | 54.94137 | -2.94284 | 24595 ft | 398 kts | 336° |
| 2026-05-04 15:58 | 54.96656 | -2.96111 | 24058 ft | 396 kts | 336° |
| 2026-05-04 15:58 | 54.99192 | -2.97954 | 23494 ft | 395 kts | 336° |
| 2026-05-04 15:58 | 55.01717 | -2.99788 | 22889 ft | 393 kts | 336° |
| 2026-05-04 15:59 | 55.04231 | -3.01613 | 22358 ft | 389 kts | 336° |
| 2026-05-04 15:59 | 55.06727 | -3.03425 | 21806 ft | 387 kts | 336° |
| 2026-05-04 15:59 | 55.09204 | -3.05225 | 21268 ft | 384 kts | 336° |
| 2026-05-04 15:59 | 55.11664 | -3.07020 | 20733 ft | 382 kts | 336° |
| 2026-05-04 16:00 | 55.14104 | -3.08805 | 20206 ft | 379 kts | 336° |
| 2026-05-04 16:00 | 55.16529 | -3.10581 | 19588 ft | 379 kts | 335° |
| 2026-05-04 16:00 | 55.18975 | -3.12374 | 18883 ft | 382 kts | 335° |
| 2026-05-04 16:00 | 55.21397 | -3.14153 | 18325 ft | 380 kts | 335° |
| 2026-05-04 16:01 | 55.23814 | -3.15935 | 17789 ft | 375 kts | 335° |
| 2026-05-04 16:01 | 55.26187 | -3.17682 | 16992 ft | 364 kts | 335° |
| 2026-05-04 16:01 | 55.28463 | -3.19233 | 16812 ft | 338 kts | 341° |
| 2026-05-04 16:01 | 55.30699 | -3.19991 | 16602 ft | 320 kts | 352° |
| 2026-05-04 16:02 | 55.32896 | -3.19963 | 16087 ft | 314 kts | 2° |
| 2026-05-04 16:02 | 55.35067 | -3.19615 | 15486 ft | 311 kts | 2° |
| 2026-05-04 16:02 | 55.39343 | -3.18942 | 14197 ft | 309 kts | 2° |
| 2026-05-04 16:03 | 55.41454 | -3.18612 | 13546 ft | 308 kts | 2° |
| 2026-05-04 16:03 | 55.43578 | -3.18276 | 12875 ft | 305 kts | 2° |
| 2026-05-04 16:03 | 55.45678 | -3.17943 | 12228 ft | 302 kts | 2° |
| 2026-05-04 16:03 | 55.47769 | -3.17615 | 11596 ft | 300 kts | 2° |
| 2026-05-04 16:04 | 55.49835 | -3.17293 | 11016 ft | 297 kts | 1° |
| 2026-05-04 16:04 | 55.53909 | -3.16652 | 10311 ft | 293 kts | 1° |
| 2026-05-04 16:04 | 55.55928 | -3.16333 | 10180 ft | 290 kts | 1° |
| 2026-05-04 16:05 | 55.57902 | -3.16020 | 10054 ft | 280 kts | 1° |
| 2026-05-04 16:05 | 55.59795 | -3.15722 | 9944 ft | 273 kts | 1° |
| 2026-05-04 16:05 | 55.63499 | -3.15143 | 9320 ft | 262 kts | 1° |
| 2026-05-04 16:06 | 55.65311 | -3.14855 | 8796 ft | 261 kts | 1° |
| 2026-05-04 16:06 | 55.69943 | -3.14126 | 7577 ft | 256 kts | 1° |
| 2026-05-04 16:07 | 55.72276 | -3.13561 | 6961 ft | 257 kts | 14° |
| 2026-05-04 16:07 | 55.77208 | -3.09993 | 5545 ft | 252 kts | 20° |
| 2026-05-04 16:08 | 55.78822 | -3.08771 | 5109 ft | 250 kts | 19° |
| 2026-05-04 16:08 | 55.83524 | -3.05194 | 4007 ft | 242 kts | 19° |
| 2026-05-04 16:09 | 55.86631 | -3.02814 | 4005 ft | 245 kts | 20° |
| 2026-05-04 16:09 | 55.89760 | -3.00433 | 4000 ft | 245 kts | 20° |
| 2026-05-04 16:10 | 55.92885 | -2.98049 | 3999 ft | 244 kts | 19° |
| 2026-05-04 16:11 | 55.97613 | -2.95380 | 3991 ft | 235 kts | 345° |
| 2026-05-04 16:11 | 55.99117 | -2.96369 | 3986 ft | 225 kts | 331° |
| 2026-05-04 16:12 | 56.03231 | -3.00206 | 3993 ft | 222 kts | 324° |
| 2026-05-04 16:12 | 56.04758 | -3.07272 | 3762 ft | 208 kts | 261° |
| 2026-05-04 16:13 | 56.03539 | -3.11877 | 3266 ft | 207 kts | 241° |
| 2026-05-04 16:13 | 56.02091 | -3.16197 | 2707 ft | 195 kts | 242° |
| 2026-05-04 16:14 | 56.00828 | -3.19955 | 2235 ft | 161 kts | 242° |
| 2026-05-04 16:14 | 55.99719 | -3.23254 | 1811 ft | 153 kts | 243° |
| 2026-05-04 16:15 | 55.98221 | -3.27702 | 1220 ft | 131 kts | 242° |
| 2026-05-04 16:16 | 55.97278 | -3.30496 | 810 ft | 132 kts | 242° |
| 2026-05-04 16:16 | 55.95870 | -3.34662 | 293 ft | 130 kts | 241° |
| 2026-05-04 16:17 | 55.95024 | -3.37185 | 112 ft | 71 kts | 239° |
| 2026-05-04 16:18 | 55.94663 | -3.38026 | 115 ft | 10 kts | 148° |
| 2026-05-04 16:18 | 55.94599 | -3.37955 | 114 ft | 12 kts | 142° |
| 2026-05-04 16:19 | 55.94719 | -3.37507 | 114 ft | 18 kts | 59° |
| 2026-05-04 16:19 | 55.94865 | -3.37076 | 113 ft | 23 kts | 58° |
| 2026-05-04 16:20 | 55.94941 | -3.36611 | 115 ft | 14 kts | 59° |
| 2026-05-04 16:20 | 55.94971 | -3.36489 | 114 ft | 3 kts | 123° |
| 2026-05-04 16:21 | 55.94921 | -3.36430 | 114 ft | 0 kts | 148° |